createdAt,value
2019-01-31T00:02:14.961Z,62.52
2019-01-31T00:05:23.582Z,61.06
2019-01-31T00:08:45.201Z,60.57
2019-01-31T00:11:25.489Z,60.44
2019-01-31T00:14:21.266Z,60.76
2019-01-31T00:17:26.226Z,60.54
2019-01-31T00:20:23.802Z,60.21
2019-01-31T00:23:43.211Z,60.04
2019-01-31T00:27:08.961Z,60.60
2019-01-31T00:30:47.097Z,62.26
2019-01-31T00:34:07.227Z,60.79
2019-01-31T00:37:54.384Z,60.84
2019-01-31T00:41:07.304Z,60.67
2019-01-31T00:44:09.266Z,62.89
2019-01-31T00:47:23.530Z,61.00
2019-01-31T00:50:22.387Z,60.41
2019-01-31T00:53:25.721Z,62.62
2019-01-31T00:56:22.384Z,61.09
2019-01-31T00:59:14.410Z,63.43
2019-01-31T01:02:34.665Z,64.93
2019-01-31T01:05:54.544Z,61.25
2019-01-31T01:08:35.833Z,61.53
2019-01-31T01:12:04.401Z,61.94
2019-01-31T01:15:24.228Z,61.75
2019-01-31T01:18:34.529Z,59.99
2019-01-31T01:21:34.781Z,59.81
2019-01-31T01:24:25.957Z,60.10
2019-01-31T01:27:36.628Z,60.40
2019-01-31T01:30:32.060Z,59.62
2019-01-31T01:33:28.268Z,59.42
2019-01-31T01:36:25.624Z,59.51
2019-01-31T01:39:31.473Z,60.33
2019-01-31T01:42:45.613Z,59.78
2019-01-31T01:46:08.725Z,59.51
2019-01-31T01:49:07.768Z,59.80
2019-01-31T01:52:30.937Z,59.08
2019-01-31T01:55:48.832Z,60.03
2019-01-31T01:58:54.924Z,59.91
2019-01-31T02:02:06.038Z,59.66
2019-01-31T02:05:12.830Z,59.50
2019-01-31T02:08:32.115Z,59.46
2019-01-31T02:11:21.709Z,59.59
2019-01-31T02:14:20.399Z,59.09
2019-01-31T02:17:14.687Z,59.24
2019-01-31T02:20:29.584Z,59.30
2019-01-31T02:23:43.211Z,59.87
2019-01-31T02:27:31.126Z,59.38
2019-01-31T02:30:27.675Z,59.78
2019-01-31T02:33:51.278Z,60.21
2019-01-31T02:36:59.762Z,59.44
2019-01-31T02:40:11.320Z,59.44
2019-01-31T02:43:22.984Z,60.15
2019-01-31T02:46:33.961Z,59.76
2019-01-31T02:49:35.962Z,59.51
2019-01-31T02:53:05.466Z,59.83
2019-01-31T02:56:35.573Z,59.43
2019-01-31T03:00:01.157Z,59.36
2019-01-31T03:03:03.882Z,59.31
2019-01-31T03:06:18.013Z,59.57
2019-01-31T03:09:42.000Z,59.47
2019-01-31T03:12:39.931Z,59.33
2019-01-31T03:16:19.273Z,59.02
2019-01-31T03:19:10.846Z,58.85
2019-01-31T03:22:04.856Z,58.85
2019-01-31T03:25:16.047Z,59.17
2019-01-31T03:28:52.797Z,58.96
2019-01-31T03:32:24.665Z,58.89
2019-01-31T03:35:36.264Z,59.80
2019-01-31T03:38:56.069Z,59.62
2019-01-31T03:42:08.207Z,59.41
2019-01-31T03:45:30.587Z,59.38
2019-01-31T03:48:33.386Z,59.34
2019-01-31T03:51:50.532Z,59.19
2019-01-31T03:54:42.274Z,58.56
2019-01-31T03:57:39.276Z,59.48
2019-01-31T04:00:55.563Z,59.27
2019-01-31T04:03:45.740Z,61.39
2019-01-31T04:06:23.840Z,59.45
2019-01-31T04:08:54.522Z,59.11
2019-01-31T04:11:24.567Z,58.87
2019-01-31T04:13:54.574Z,58.68
2019-01-31T04:16:24.729Z,59.60
2019-01-31T04:18:54.621Z,59.30
2019-01-31T04:21:24.670Z,59.05
2019-01-31T04:23:55.018Z,59.38
2019-01-31T04:26:24.979Z,59.11
2019-01-31T04:28:55.514Z,59.00
2019-01-31T04:31:25.413Z,58.70
2019-01-31T04:33:55.302Z,59.84
2019-01-31T04:36:25.468Z,59.13
2019-01-31T04:38:55.454Z,59.05
2019-01-31T04:41:25.358Z,59.25
2019-01-31T04:43:55.519Z,59.18
2019-01-31T04:46:25.398Z,59.10
2019-01-31T04:48:55.275Z,59.37
2019-01-31T04:51:25.181Z,58.69
2019-01-31T04:53:55.097Z,58.46
2019-01-31T04:56:25.007Z,59.14
2019-01-31T04:58:54.904Z,59.18
2019-01-31T05:01:26.588Z,59.16
2019-01-31T05:03:56.910Z,58.79
2019-01-31T05:06:26.810Z,59.50
2019-01-31T05:08:56.799Z,59.23
2019-01-31T05:11:26.707Z,59.22
2019-01-31T05:13:56.896Z,59.48
2019-01-31T05:16:26.744Z,59.29
2019-01-31T05:18:57.000Z,60.22
2019-01-31T05:21:26.894Z,59.22
2019-01-31T05:23:56.938Z,58.85
2019-01-31T05:26:26.833Z,59.08
2019-01-31T05:28:57.063Z,59.40
2019-01-31T05:31:27.043Z,59.22
2019-01-31T05:33:56.975Z,59.24
2019-01-31T05:36:26.918Z,59.58
2019-01-31T05:38:56.954Z,59.61
2019-01-31T05:41:26.862Z,59.90
2019-01-31T05:43:56.783Z,59.77
2019-01-31T05:46:26.792Z,59.49
2019-01-31T05:48:56.825Z,60.00
2019-01-31T05:51:26.785Z,59.76
2019-01-31T05:53:56.724Z,60.26
2019-01-31T05:56:26.668Z,59.94
2019-01-31T05:58:56.622Z,60.22
2019-01-31T06:01:26.507Z,60.06
2019-01-31T06:03:56.813Z,60.32
2019-01-31T06:06:26.965Z,60.28
2019-01-31T06:08:57.256Z,60.07
2019-01-31T06:11:27.135Z,60.29
2019-01-31T06:13:57.061Z,60.37
2019-01-31T06:16:26.973Z,60.50
2019-01-31T06:18:57.122Z,59.96
2019-01-31T06:21:27.090Z,60.63
2019-01-31T06:23:57.315Z,60.59
2019-01-31T06:26:27.268Z,60.48
2019-01-31T06:28:57.202Z,60.40
2019-01-31T06:31:27.522Z,60.64
2019-01-31T06:33:57.411Z,60.71
2019-01-31T06:36:27.363Z,60.64
2019-01-31T06:38:57.374Z,60.71
2019-01-31T06:41:27.439Z,60.24
2019-01-31T06:43:57.573Z,60.50
2019-01-31T06:46:27.725Z,60.21
2019-01-31T06:48:58.993Z,62.17
2019-01-31T06:51:29.089Z,60.76
2019-01-31T06:53:59.305Z,60.06
2019-01-31T06:56:29.312Z,60.04
2019-01-31T06:58:59.292Z,59.54
2019-01-31T07:01:29.669Z,59.39
2019-01-31T07:03:59.712Z,60.84
2019-01-31T07:06:29.662Z,59.89
2019-01-31T07:08:59.649Z,59.99
2019-01-31T07:11:30.412Z,59.87
2019-01-31T07:14:00.702Z,59.97
2019-01-31T07:16:30.605Z,59.85
2019-01-31T07:19:00.594Z,59.93
2019-01-31T07:21:30.974Z,59.90
2019-01-31T07:24:00.878Z,59.57
2019-01-31T07:26:30.819Z,59.34
2019-01-31T07:29:00.846Z,59.77
2019-01-31T07:31:30.892Z,59.90
2019-01-31T07:34:00.922Z,59.62
2019-01-31T07:36:30.969Z,60.27
2019-01-31T07:39:00.902Z,58.75
2019-01-31T07:41:41.113Z,59.32
2019-01-31T07:44:02.508Z,59.89
2019-01-31T07:46:32.449Z,59.42
2019-01-31T07:49:02.691Z,59.03
2019-01-31T07:51:32.818Z,60.70
2019-01-31T07:54:02.779Z,61.14
2019-01-31T07:56:33.008Z,59.98
2019-01-31T07:59:02.867Z,61.16
2019-01-31T08:01:33.068Z,59.28
2019-01-31T08:04:03.267Z,59.44
2019-01-31T08:06:33.407Z,60.26
2019-01-31T08:09:03.877Z,60.00
2019-01-31T08:11:33.791Z,60.55
2019-01-31T08:14:04.483Z,59.98
2019-01-31T08:16:34.505Z,60.78
2019-01-31T08:19:05.036Z,61.74
2019-01-31T08:21:34.940Z,60.23
2019-01-31T08:24:05.380Z,60.98
2019-01-31T08:26:35.337Z,62.99
2019-01-31T08:29:05.497Z,62.68
2019-01-31T08:31:35.558Z,62.25
2019-01-31T08:34:05.823Z,64.65
2019-01-31T08:36:35.988Z,61.86
2019-01-31T08:39:08.996Z,60.34
2019-01-31T08:41:38.998Z,58.85
2019-01-31T08:44:09.228Z,59.31
2019-01-31T08:46:39.447Z,58.34
2019-01-31T08:49:09.885Z,58.99
2019-01-31T08:51:39.778Z,59.65
2019-01-31T08:54:09.728Z,58.96
2019-01-31T08:56:39.615Z,58.54
2019-01-31T08:59:09.673Z,58.95
2019-01-31T09:01:40.069Z,58.67
2019-01-31T09:04:09.978Z,58.62
2019-01-31T09:06:39.971Z,58.14
2019-01-31T09:09:14.027Z,59.00
2019-01-31T09:11:44.501Z,58.90
2019-01-31T09:14:14.405Z,62.05
2019-01-31T09:16:44.394Z,63.30
2019-01-31T09:19:14.360Z,59.80
2019-01-31T09:22:01.260Z,58.42
2019-01-31T09:25:15.572Z,57.68
2019-01-31T09:28:22.133Z,57.32
2019-01-31T09:31:44.939Z,57.43
2019-01-31T09:34:53.029Z,61.61
2019-01-31T09:38:17.876Z,58.33
2019-01-31T09:41:41.750Z,58.35
2019-01-31T09:44:51.948Z,57.15
2019-01-31T09:48:15.606Z,57.85
2019-01-31T09:51:48.839Z,57.18
2019-01-31T09:54:48.669Z,57.06
2019-01-31T09:58:28.087Z,60.04
2019-01-31T10:01:59.562Z,59.79
2019-01-31T10:05:12.218Z,62.48
2019-01-31T10:08:13.007Z,57.92
2019-01-31T10:11:21.772Z,56.91
2019-01-31T10:14:47.993Z,57.15
2019-01-31T10:18:11.598Z,55.83
2019-01-31T10:21:48.512Z,56.26
2019-01-31T10:25:19.171Z,58.22
2019-01-31T10:28:49.660Z,57.47
2019-01-31T10:32:12.862Z,57.91
2019-01-31T10:35:05.481Z,56.87
2019-01-31T10:38:00.525Z,62.81
2019-01-31T10:41:20.514Z,63.52
2019-01-31T10:45:02.356Z,58.97
2019-01-31T10:48:00.822Z,57.39
2019-01-31T10:51:27.791Z,57.15
2019-01-31T10:54:49.227Z,57.63
2019-01-31T10:57:41.801Z,57.08
2019-01-31T11:00:52.487Z,57.69
2019-01-31T11:03:51.893Z,59.49
2019-01-31T11:07:16.421Z,57.01
2019-01-31T11:10:37.264Z,55.58
2019-01-31T11:13:59.433Z,60.45
2019-01-31T11:16:56.398Z,58.34
2019-01-31T11:20:09.903Z,56.31
2019-01-31T11:23:14.777Z,59.31
2019-01-31T11:26:41.586Z,61.19
2019-01-31T11:29:55.350Z,57.33
2019-01-31T11:33:36.584Z,57.82
2019-01-31T11:36:50.931Z,55.73
2019-01-31T11:40:27.287Z,55.56
2019-01-31T11:44:12.797Z,55.01
2019-01-31T11:47:20.291Z,54.91
2019-01-31T11:50:39.784Z,54.97
2019-01-31T11:53:41.711Z,54.90
2019-01-31T11:56:51.094Z,54.78
2019-01-31T11:59:20.992Z,54.48
2019-01-31T12:01:50.954Z,54.62
2019-01-31T12:04:21.368Z,54.37
2019-01-31T12:06:51.776Z,56.06
2019-01-31T12:09:22.824Z,54.57
2019-01-31T12:11:53.199Z,54.69
2019-01-31T12:14:23.385Z,53.07
2019-01-31T12:16:53.417Z,55.62
2019-01-31T12:19:23.622Z,53.34
2019-01-31T12:21:54.198Z,52.51
2019-01-31T12:24:24.167Z,54.35
2019-01-31T12:26:54.705Z,54.53
2019-01-31T12:29:24.871Z,54.24
2019-01-31T12:31:55.087Z,53.71
2019-01-31T12:34:25.375Z,53.12
2019-01-31T12:36:55.644Z,51.57
2019-01-31T12:39:25.679Z,50.77
2019-01-31T12:41:56.093Z,50.96
2019-01-31T12:44:26.413Z,50.71
2019-01-31T12:46:56.323Z,50.67
2019-01-31T12:49:26.358Z,50.48
2019-01-31T12:51:56.775Z,50.34
2019-01-31T12:54:27.070Z,50.18
2019-01-31T12:56:57.419Z,50.25
2019-01-31T12:59:27.466Z,49.51
2019-01-31T13:01:57.406Z,48.94
2019-01-31T13:04:27.520Z,49.21
2019-01-31T13:06:57.578Z,48.95
2019-01-31T13:09:28.399Z,49.38
2019-01-31T13:11:58.606Z,49.27
2019-01-31T13:14:28.728Z,49.62
2019-01-31T13:16:58.739Z,50.23
2019-01-31T13:19:28.699Z,50.58
2019-01-31T13:21:59.245Z,50.18
2019-01-31T13:24:29.205Z,52.63
2019-01-31T13:26:59.457Z,55.51
2019-01-31T13:29:29.319Z,51.55
2019-01-31T13:31:59.427Z,51.62
2019-01-31T13:34:29.501Z,51.39
2019-01-31T13:36:59.572Z,52.43
2019-01-31T13:39:29.564Z,51.93
2019-01-31T13:41:59.532Z,51.13
2019-01-31T13:44:33.122Z,51.24
2019-01-31T13:47:03.606Z,51.26
2019-01-31T13:49:33.670Z,51.12
2019-01-31T13:52:03.665Z,51.25
2019-01-31T13:54:33.732Z,51.57
2019-01-31T13:57:11.008Z,52.18
2019-01-31T13:59:50.776Z,54.13
2019-01-31T14:02:25.856Z,56.11
2019-01-31T14:04:56.815Z,53.00
2019-01-31T14:07:27.639Z,54.10
2019-01-31T14:10:04.910Z,51.97
2019-01-31T14:12:32.361Z,51.80
2019-01-31T14:15:02.563Z,52.10
2019-01-31T14:17:32.472Z,51.55
2019-01-31T14:20:02.628Z,51.96
2019-01-31T14:22:42.809Z,53.32
2019-01-31T14:25:05.929Z,52.63
2019-01-31T14:27:36.045Z,51.82
2019-01-31T14:30:14.507Z,54.48
2019-01-31T14:32:45.114Z,52.18
2019-01-31T14:35:15.280Z,51.33
2019-01-31T14:37:45.967Z,50.96
2019-01-31T14:40:17.475Z,51.71
2019-01-31T14:42:47.473Z,50.45
2019-01-31T14:45:17.630Z,51.81
2019-01-31T14:47:47.528Z,52.42
2019-01-31T14:50:25.285Z,52.06
2019-01-31T14:52:57.010Z,51.32
2019-01-31T14:55:27.351Z,51.30
2019-01-31T14:57:58.011Z,51.93
2019-01-31T15:00:30.527Z,51.28
2019-01-31T15:03:02.326Z,51.02
2019-01-31T15:05:33.197Z,52.83
2019-01-31T15:08:03.753Z,51.74
2019-01-31T15:10:34.479Z,51.60
2019-01-31T15:13:05.983Z,53.02
2019-01-31T15:15:35.997Z,53.88
2019-01-31T15:18:09.558Z,53.87
2019-01-31T15:20:44.374Z,55.47
2019-01-31T15:23:17.527Z,54.52
2019-01-31T15:25:47.576Z,56.44
2019-01-31T15:28:18.015Z,54.58
2019-01-31T15:30:48.011Z,57.21
2019-01-31T15:33:18.509Z,56.85
2019-01-31T15:35:49.285Z,56.74
2019-01-31T15:38:20.012Z,54.69
2019-01-31T15:40:50.562Z,56.66
2019-01-31T15:43:21.231Z,53.83
2019-01-31T15:45:51.695Z,53.89
2019-01-31T15:48:23.781Z,54.42
2019-01-31T15:50:54.700Z,54.76
2019-01-31T15:53:25.123Z,53.77
2019-01-31T15:55:56.490Z,55.88
2019-01-31T15:58:26.498Z,55.02
2019-01-31T16:00:58.596Z,54.20
2019-01-31T16:03:29.029Z,54.38
2019-01-31T16:05:59.091Z,53.93
2019-01-31T16:08:29.588Z,54.35
2019-01-31T16:10:59.658Z,55.50
2019-01-31T16:13:29.642Z,55.20
2019-01-31T16:16:00.698Z,56.63
2019-01-31T16:18:30.742Z,56.32
2019-01-31T16:21:01.532Z,57.07
2019-01-31T16:23:32.415Z,57.29
2019-01-31T16:26:02.375Z,55.49
2019-01-31T16:28:33.760Z,54.94
2019-01-31T16:31:04.187Z,55.36
2019-01-31T16:33:34.186Z,56.48
2019-01-31T16:36:04.707Z,59.59
2019-01-31T16:38:34.669Z,59.71
2019-01-31T16:41:05.114Z,59.67
2019-01-31T16:43:35.617Z,58.39
2019-01-31T16:46:06.088Z,59.93
2019-01-31T16:48:35.995Z,57.72
2019-01-31T16:51:06.099Z,59.42
2019-01-31T16:53:35.981Z,59.98
2019-01-31T16:56:06.055Z,59.98
2019-01-31T16:58:36.139Z,58.55
2019-01-31T17:01:07.116Z,61.10
2019-01-31T17:03:37.234Z,60.24
2019-01-31T17:06:07.273Z,59.89
2019-01-31T17:08:38.494Z,58.57
2019-01-31T17:11:08.438Z,58.23
2019-01-31T17:13:38.636Z,58.06
2019-01-31T17:16:09.694Z,58.42
2019-01-31T17:18:39.739Z,60.85
2019-01-31T17:21:10.293Z,59.47
2019-01-31T17:23:40.282Z,60.93
2019-01-31T17:26:10.493Z,62.28
2019-01-31T17:28:40.644Z,65.02
2019-01-31T17:31:11.375Z,64.21
2019-01-31T17:33:42.173Z,62.34
2019-01-31T17:36:12.569Z,63.19
2019-01-31T17:38:42.727Z,62.62
2019-01-31T17:41:12.944Z,62.86
2019-01-31T17:43:43.184Z,65.40
2019-01-31T17:46:13.587Z,61.78
2019-01-31T17:48:43.526Z,64.45
2019-01-31T17:51:15.236Z,61.82
2019-01-31T17:53:46.105Z,60.76
2019-01-31T17:56:16.081Z,60.76
2019-01-31T17:58:46.873Z,60.23
2019-01-31T18:01:17.012Z,62.43
2019-01-31T18:03:47.060Z,61.18
2019-01-31T18:06:18.841Z,62.44
2019-01-31T18:08:49.909Z,63.30
2019-01-31T18:11:20.049Z,63.66
2019-01-31T18:13:52.662Z,62.68
2019-01-31T18:16:22.971Z,60.51
2019-01-31T18:18:53.083Z,60.45
2019-01-31T18:21:23.026Z,64.87
2019-01-31T18:23:53.252Z,63.93
2019-01-31T18:26:23.603Z,63.75
2019-01-31T18:28:53.503Z,60.79
2019-01-31T18:31:23.519Z,64.03
2019-01-31T18:33:53.431Z,62.36
2019-01-31T18:36:24.994Z,61.61
2019-01-31T18:38:57.609Z,61.10
2019-01-31T18:41:29.421Z,61.22
2019-01-31T18:43:59.366Z,59.90
2019-01-31T18:46:29.319Z,62.31
2019-01-31T18:48:59.303Z,62.87
2019-01-31T18:51:30.163Z,61.83
2019-01-31T18:54:01.410Z,63.01
2019-01-31T18:56:31.741Z,61.35
2019-01-31T18:59:02.385Z,62.50
2019-01-31T19:01:32.571Z,62.25
2019-01-31T19:04:02.887Z,60.46
2019-01-31T19:06:33.965Z,60.55
2019-01-31T19:09:05.247Z,61.83
2019-01-31T19:11:35.293Z,64.30
2019-01-31T19:14:05.946Z,64.58
2019-01-31T19:16:35.841Z,62.02
2019-01-31T19:19:06.195Z,61.89
2019-01-31T19:21:36.163Z,62.20
2019-01-31T19:24:06.608Z,60.51
2019-01-31T19:26:36.534Z,60.54
2019-01-31T19:29:07.440Z,62.25
2019-01-31T19:31:40.208Z,60.80
2019-01-31T19:34:09.411Z,60.86
2019-01-31T19:36:39.372Z,61.08
2019-01-31T19:39:15.769Z,60.53
2019-01-31T19:41:45.800Z,60.48
2019-01-31T19:44:15.708Z,60.20
2019-01-31T19:46:45.641Z,60.90
2019-01-31T19:49:15.751Z,59.57
2019-01-31T19:51:46.135Z,60.69
2019-01-31T19:54:18.545Z,62.73
2019-01-31T19:56:48.796Z,62.42
2019-01-31T19:59:18.811Z,60.44
2019-01-31T20:01:50.767Z,61.27
2019-01-31T20:04:20.552Z,61.50
2019-01-31T20:06:50.768Z,61.75
2019-01-31T20:09:24.691Z,63.55
2019-01-31T20:11:54.675Z,61.40
2019-01-31T20:14:25.113Z,60.76
2019-01-31T20:16:55.073Z,61.03
2019-01-31T20:19:25.276Z,60.78
2019-01-31T20:21:55.186Z,63.29
2019-01-31T20:24:25.668Z,60.66
2019-01-31T20:26:55.897Z,61.78
2019-01-31T20:29:26.069Z,60.87
2019-01-31T20:31:56.402Z,59.59
2019-01-31T20:34:26.454Z,60.39
2019-01-31T20:36:56.558Z,61.12
2019-01-31T20:39:26.807Z,62.81
2019-01-31T20:41:56.939Z,60.95
2019-01-31T20:44:26.976Z,61.34
2019-01-31T20:46:56.967Z,60.36
2019-01-31T20:49:26.955Z,61.36
2019-01-31T20:51:56.948Z,59.82
2019-01-31T20:54:26.845Z,62.01
2019-01-31T20:56:56.898Z,62.38
2019-01-31T20:59:27.007Z,61.63
2019-01-31T21:01:56.883Z,61.77
2019-01-31T21:04:26.919Z,61.54
2019-01-31T21:06:57.001Z,61.76
2019-01-31T21:09:28.685Z,60.70
2019-01-31T21:11:58.949Z,61.15
2019-01-31T21:14:29.288Z,61.96
2019-01-31T21:16:59.444Z,60.97
2019-01-31T21:19:30.764Z,61.07
2019-01-31T21:22:00.784Z,60.01
2019-01-31T21:24:30.734Z,62.10
2019-01-31T21:27:00.831Z,62.35
2019-01-31T21:29:30.782Z,60.47
2019-01-31T21:32:00.892Z,63.65
2019-01-31T21:34:30.893Z,61.53
2019-01-31T21:37:00.861Z,63.76
2019-01-31T21:39:30.783Z,63.11
2019-01-31T21:42:00.684Z,62.26
2019-01-31T21:44:30.776Z,64.07
2019-01-31T21:47:03.339Z,64.57
2019-01-31T21:49:32.569Z,64.45
2019-01-31T21:52:02.493Z,64.75
2019-01-31T21:54:32.412Z,66.30
2019-01-31T21:57:02.556Z,67.20
2019-01-31T21:59:32.641Z,66.12
2019-01-31T22:02:02.727Z,64.90
2019-01-31T22:04:32.642Z,65.21
2019-01-31T22:07:02.943Z,64.87
2019-01-31T22:09:32.847Z,64.34
2019-01-31T22:12:02.850Z,64.15
2019-01-31T22:14:32.729Z,67.15
2019-01-31T22:17:13.924Z,64.40
2019-01-31T22:19:34.392Z,64.64
2019-01-31T22:22:04.693Z,64.19
2019-01-31T22:24:34.585Z,63.75
2019-01-31T22:27:04.588Z,65.64
2019-01-31T22:29:34.764Z,65.14
2019-01-31T22:32:04.758Z,65.08
2019-01-31T22:34:35.010Z,65.07
2019-01-31T22:37:05.436Z,66.11
2019-01-31T22:39:35.631Z,66.26
2019-01-31T22:42:05.707Z,66.95
2019-01-31T22:44:35.586Z,65.28
2019-01-31T22:47:05.740Z,66.32
2019-01-31T22:49:35.772Z,66.50
2019-01-31T22:52:05.968Z,65.98
2019-01-31T22:54:35.932Z,64.90
2019-01-31T22:57:05.978Z,64.82
2019-01-31T22:59:35.858Z,63.72
2019-01-31T23:02:14.155Z,65.54
2019-01-31T23:04:44.367Z,66.18
2019-01-31T23:07:14.320Z,65.99
2019-01-31T23:09:44.193Z,65.70
2019-01-31T23:12:14.084Z,65.74
2019-01-31T23:14:45.184Z,64.45
2019-01-31T23:17:15.183Z,67.64
2019-01-31T23:19:45.204Z,66.93
2019-01-31T23:22:15.434Z,64.47
2019-01-31T23:24:45.469Z,65.99
2019-01-31T23:27:19.764Z,66.09
2019-01-31T23:29:49.703Z,65.91
2019-01-31T23:32:19.830Z,65.23
2019-01-31T23:34:49.987Z,64.56
2019-01-31T23:37:19.897Z,63.76
2019-01-31T23:39:49.846Z,63.99
2019-01-31T23:42:19.885Z,64.78
2019-01-31T23:44:49.771Z,67.40
2019-01-31T23:47:19.754Z,66.69
2019-01-31T23:49:49.661Z,68.35
2019-01-31T23:52:19.945Z,67.39
2019-01-31T23:54:49.841Z,67.62
2019-01-31T23:57:19.757Z,65.61
2019-01-31T23:59:49.684Z,64.36
